createdAt,value
2022-11-16T00:02:48.085Z,57.88
2022-11-16T00:12:49.489Z,57.72
2022-11-16T00:22:50.867Z,58.12
2022-11-16T00:32:52.330Z,58.13
2022-11-16T00:42:53.883Z,58.25
2022-11-16T00:52:55.299Z,58.21
2022-11-16T01:02:56.711Z,58.27
2022-11-16T01:12:58.295Z,58.43
2022-11-16T01:22:59.777Z,58.26
2022-11-16T01:33:01.149Z,58.59
2022-11-16T01:43:02.995Z,58.63
2022-11-16T01:53:05.473Z,58.46
2022-11-16T02:03:06.862Z,58.70
2022-11-16T02:13:21.671Z,58.58
2022-11-16T02:23:45.555Z,59.02
2022-11-16T02:33:47.068Z,58.69
2022-11-16T02:43:52.605Z,58.74
2022-11-16T02:54:08.414Z,58.98
2022-11-16T03:04:28.598Z,57.83
2022-11-16T03:14:39.434Z,58.22
2022-11-16T03:24:41.053Z,58.13
2022-11-16T03:34:44.196Z,58.31
2022-11-16T03:44:45.584Z,58.53
2022-11-16T03:54:46.970Z,58.26
2022-11-16T04:05:06.789Z,58.13
2022-11-16T04:15:28.524Z,58.29
2022-11-16T04:25:31.344Z,58.21
2022-11-16T04:35:53.121Z,58.17
2022-11-16T04:46:12.847Z,58.84
2022-11-16T04:56:14.228Z,58.36
2022-11-16T05:06:15.777Z,58.73
2022-11-16T05:16:17.159Z,59.10
2022-11-16T05:26:18.561Z,59.42
2022-11-16T05:36:19.942Z,58.59
2022-11-16T05:46:21.954Z,58.24
2022-11-16T05:56:23.437Z,57.25
2022-11-16T06:06:24.868Z,56.51
2022-11-16T06:16:26.260Z,55.51
2022-11-16T06:26:27.693Z,55.01
2022-11-16T06:36:29.212Z,54.33
2022-11-16T06:46:30.730Z,53.99
2022-11-16T06:56:34.287Z,54.30
2022-11-16T07:06:35.749Z,54.20
2022-11-16T07:16:37.162Z,53.46
2022-11-16T07:26:38.647Z,53.35
2022-11-16T07:36:40.107Z,53.35
2022-11-16T07:46:49.025Z,51.98
2022-11-16T07:56:50.529Z,51.65
2022-11-16T08:06:52.073Z,51.11
2022-11-16T08:16:53.545Z,50.78
2022-11-16T08:26:55.196Z,49.34
2022-11-16T08:36:56.741Z,47.76
2022-11-16T08:46:58.222Z,46.96
2022-11-16T08:56:59.595Z,45.80
2022-11-16T09:07:01.033Z,46.12
2022-11-16T09:17:02.482Z,46.06
2022-11-16T09:27:03.946Z,45.96
2022-11-16T09:37:05.390Z,46.75
2022-11-16T09:47:17.472Z,46.29
2022-11-16T09:57:19.573Z,46.23
2022-11-16T10:07:31.441Z,45.17
2022-11-16T10:17:51.682Z,46.08
2022-11-16T10:28:38.615Z,44.79
2022-11-16T10:38:40.336Z,45.20
2022-11-16T10:48:49.171Z,45.00
2022-11-16T10:59:09.499Z,45.57
2022-11-16T11:09:33.707Z,45.52
2022-11-16T11:19:35.276Z,45.77
2022-11-16T11:29:37.812Z,45.42
2022-11-16T11:39:39.305Z,45.95
2022-11-16T11:49:42.114Z,45.60
2022-11-16T11:59:43.487Z,45.85
2022-11-16T12:09:52.609Z,45.99
2022-11-16T12:20:12.760Z,47.61
2022-11-16T12:30:18.969Z,46.81
2022-11-16T12:40:46.205Z,46.09
2022-11-16T12:51:02.750Z,45.49
2022-11-16T13:01:32.092Z,45.24
2022-11-16T13:11:50.472Z,44.34
2022-11-16T13:22:03.541Z,44.91
2022-11-16T13:32:16.515Z,44.46
2022-11-16T13:42:18.150Z,43.92
2022-11-16T13:52:26.407Z,44.09
2022-11-16T14:02:42.309Z,43.86
2022-11-16T14:12:53.336Z,44.62
2022-11-16T14:23:19.858Z,44.18
2022-11-16T14:33:28.995Z,44.91
2022-11-16T14:43:42.799Z,45.16
2022-11-16T14:53:56.285Z,45.44
2022-11-16T15:04:06.473Z,45.53
2022-11-16T15:14:07.897Z,46.13
2022-11-16T15:24:29.529Z,46.43
2022-11-16T15:34:30.865Z,46.53
2022-11-16T15:44:32.926Z,46.56
2022-11-16T15:54:53.495Z,47.23
2022-11-16T16:04:54.885Z,47.09
2022-11-16T16:15:23.778Z,47.62
2022-11-16T16:25:30.013Z,47.84
2022-11-16T16:35:31.472Z,47.94
2022-11-16T16:45:38.688Z,48.30
2022-11-16T16:55:40.858Z,47.99
2022-11-16T17:05:42.494Z,48.46
2022-11-16T17:15:43.861Z,48.82
2022-11-16T17:25:45.268Z,49.39
2022-11-16T17:35:57.732Z,49.30
2022-11-16T17:46:07.073Z,49.63
2022-11-16T17:56:16.971Z,50.04
2022-11-16T18:06:19.865Z,50.13
2022-11-16T18:16:22.633Z,50.23
2022-11-16T18:26:24.165Z,50.12
2022-11-16T18:36:25.553Z,50.29
2022-11-16T18:46:30.789Z,50.60
2022-11-16T18:56:32.267Z,50.69
2022-11-16T19:06:33.671Z,50.83
2022-11-16T19:16:35.224Z,51.15
2022-11-16T19:26:37.205Z,51.20
2022-11-16T19:36:38.734Z,51.53
2022-11-16T19:46:40.135Z,51.50
2022-11-16T19:56:41.791Z,51.68
2022-11-16T20:06:43.213Z,51.69
2022-11-16T20:16:46.238Z,51.84
2022-11-16T20:26:48.165Z,51.91
2022-11-16T20:36:50.938Z,52.08
2022-11-16T20:46:52.802Z,51.93
2022-11-16T20:56:54.366Z,52.26
2022-11-16T21:06:56.034Z,52.30
2022-11-16T21:16:57.629Z,52.29
2022-11-16T21:26:59.389Z,52.62
2022-11-16T21:37:00.753Z,52.52
2022-11-16T21:47:02.147Z,52.99
2022-11-16T21:57:03.690Z,53.02
2022-11-16T22:07:23.478Z,53.04
2022-11-16T22:17:25.021Z,53.12
2022-11-16T22:27:26.414Z,53.50
2022-11-16T22:37:27.831Z,54.31
2022-11-16T22:47:29.205Z,54.73
2022-11-16T22:57:30.590Z,55.12
2022-11-16T23:07:32.045Z,55.95
2022-11-16T23:17:33.551Z,56.34
2022-11-16T23:28:04.413Z,57.02
2022-11-16T23:38:06.360Z,57.16
2022-11-16T23:48:08.282Z,57.37
2022-11-16T23:58:13.556Z,57.96
